Latest Weather Observations for Jervis Bay Airfield

IDN60901

Issued at 8:11 am EDT Wednesday 23 October 2019 (issued every 10 minutes, with the page automatically refreshed every 10 minutes)

About weather observations | Map of Canberra area stations | Latest observations for Canberra area | Other Formats
Station Details ID: 068264 Name: JERVIS BAY AIRFIELD AWS Lat: -35.14 Lon: 150.70 Height: 57.18 m
Data from the previous 72 hours. | See also: Recent months at Jervis Bay Airfield
Date/Time
EDT
Temp
°C
App
Temp
°C
Dew
Point
°C
Rel
Hum
%
Delta-T
°C
Wind Press
QNH
hPa
Press
MSL
hPa
Rain since
9am
mm
Dir  Spd
km/h
Gust
km/h
Spd
kts
Gust
kts
23/08:00am 16.3 15.7 14.7 90 0.9 N 11 15 6 8 1022.7 1022.6 0.0
23/07:30am 15.3 15.6 15.0 98 0.2 NNE 7 9 4 5 1022.8 1022.7 0.0
23/07:00am 14.4 14.0 14.1 98 0.2 NNE 9 11 5 6 1022.7 1022.6 0.0
23/06:30am 13.1 12.8 12.8 98 0.2 NE 6 7 3 4 1022.6 1022.5 0.0
23/06:00am 12.3 11.2 12.0 98 0.2 NNE 9 9 5 5 1022.7 1022.6 0.0
23/05:30am 13.3 12.5 13.0 98 0.2 N 9 9 5 5 1022.5 1022.4 0.0
23/05:00am 12.9 13.7 12.6 98 0.2 CALM 0 0 0 0 1022.5 1022.4 0.0
23/04:30am 12.7 13.4 12.2 97 0.3 CALM 0 0 0 0 1022.7 1022.6 0.0
23/04:00am 13.2 14.1 12.9 98 0.2 CALM 0 0 0 0 1022.9 1022.8 0.0
23/03:30am 13.5 14.5 13.2 98 0.2 CALM 0 0 0 0 1023.1 1023.0 0.0
23/03:00am 14.0 15.2 13.7 98 0.2 CALM 0 0 0 0 1023.3 1023.2 0.0
23/02:30am 13.5 14.4 13.0 97 0.3 CALM 0 0 0 0 1023.4 1023.3 0.0
23/02:00am 14.0 15.1 13.5 97 0.3 CALM 0 0 0 0 1023.6 1023.5 0.0
23/01:30am 14.5 15.8 14.2 98 0.2 CALM 0 0 0 0 1024.1 1024.0 0.0
23/01:00am 14.2 15.4 13.7 97 0.3 CALM 0 0 0 0 1024.6 1024.5 0.0
23/12:30am 14.7 16.0 14.1 96 0.3 CALM 0 0 0 0 1025.0 1024.9 0.0
23/12:00am 15.0 16.4 14.4 96 0.3 CALM 0 0 0 0 1025.2 1025.1 0.0
 
Date/Time
EDT
Temp
°C
App
Temp
°C
Dew
Point
°C
Rel
Hum
%
Delta-T
°C
Wind Press
QNH
hPa
Press
MSL
hPa
Rain since
9am
mm
Dir  Spd
km/h
Gust
km/h
Spd
kts
Gust
kts
22/11:30pm 14.7 16.0 14.1 96 0.3 CALM 0 0 0 0 1025.3 1025.2 0.0
22/11:00pm 14.8 16.1 14.2 96 0.3 CALM 0 0 0 0 1025.3 1025.2 0.0
22/10:30pm 14.7 15.9 13.7 94 0.6 CALM 0 0 0 0 1025.5 1025.4 0.0
22/10:00pm 14.9 15.0 13.8 93 0.6 ESE 6 6 3 3 1025.5 1025.4 0.0
22/09:30pm 15.4 15.7 14.4 94 0.6 ESE 6 7 3 4 1025.3 1025.2 0.0
22/09:00pm 15.5 15.6 14.0 91 0.8 ESE 6 7 3 4 1025.2 1025.1 0.0
22/08:30pm 16.0 15.7 14.5 91 0.9 SE 9 11 5 6 1025.0 1024.9 0.0
22/08:00pm 16.2 16.3 14.4 89 1.0 ESE 7 9 4 5 1024.9 1024.8 0.0
22/07:30pm 16.7 16.8 14.5 87 1.3 ESE 7 9 4 5 1024.6 1024.5 0.0
22/07:00pm 17.4 17.2 14.7 84 1.6 E 9 13 5 7 1024.2 1024.1 0.0
22/06:30pm 18.0 17.0 14.5 80 2.0 E 13 17 7 9 1023.8 1023.7 0.0
22/06:00pm 18.8 17.0 14.5 76 2.5 E 17 22 9 12 1023.5 1023.4 0.0
22/05:30pm 19.1 17.1 15.0 77 2.4 E 19 24 10 13 1023.2 1023.1 0.0
22/05:00pm 20.1 18.1 14.9 72 3.0 ENE 19 24 10 13 1022.8 1022.7 0.0
22/04:30pm 20.6 18.2 14.5 68 3.6 ENE 20 32 11 17 1022.8 1022.7 0.0
22/04:00pm 21.1 18.8 14.0 64 4.1 ENE 19 32 10 17 1022.6 1022.5 0.0
22/03:30pm 21.4 18.3 12.3 56 5.1 ENE 20 26 11 14 1022.6 1022.5 0.0
22/03:00pm 21.6 18.1 11.0 51 5.8 ENE 20 24 11 13 1022.7 1022.6 0.0
22/02:30pm 22.0 18.5 8.9 43 7.0 ENE 17 24 9 13 1022.8 1022.7 0.0
22/02:00pm 21.8 19.0 11.2 51 5.9 NE 17 22 9 12 1023.0 1022.9 0.0
22/01:30pm 21.5 19.3 13.2 59 4.8 ENE 17 22 9 12 1023.2 1023.1 0.0
22/01:00pm 21.1 19.4 13.5 62 4.4 NE 15 20 8 11 1023.4 1023.3 0.0
22/12:30pm 20.8 19.6 14.0 65 3.9 NE 13 20 7 11 1023.6 1023.5 0.0
22/12:00pm 20.3 19.0 13.7 66 3.8 NE 13 19 7 10 1024.0 1023.9 0.0
22/11:30am 19.9 18.7 12.9 64 4.0 NE 11 17 6 9 1024.6 1024.5 0.0
22/11:00am 19.5 17.2 11.8 61 4.2 NE 15 20 8 11 1024.7 1024.6 0.0
22/10:30am 19.5 17.3 12.0 62 4.2 NE 15 20 8 11 1025.0 1024.9 0.0
22/10:00am 18.9 16.6 11.7 63 4.0 NE 15 20 8 11 1025.1 1025.0 0.0
22/09:30am 18.1 16.2 11.9 67 3.4 NNE 13 19 7 10 1025.1 1025.0 0.0
22/09:00am 17.4 15.1 10.3 63 3.8 NNE 13 17 7 9 1025.0 1024.9 0.0
22/08:30am 17.1 16.0 12.0 72 2.8 NNE 9 13 5 7 1024.9 1024.8 0.0
22/08:00am 15.3 14.5 12.8 85 1.4 NNE 9 13 5 7 1024.9 1024.8 0.0
22/07:30am 13.8 13.4 13.0 95 0.4 NE 7 9 4 5 1025.0 1024.9 0.0
22/07:00am 12.8 11.9 12.5 98 0.2 NE 9 13 5 7 1024.7 1024.6 0.0
22/06:30am 11.0 9.5 10.7 98 0.2 ENE 9 11 5 6 1024.6 1024.5 0.0
22/06:00am 10.5 8.9 10.2 98 0.2 ENE 9 9 5 5 1024.5 1024.4 0.0
22/05:30am 10.5 8.9 10.2 98 0.2 ENE 9 9 5 5 1024.2 1024.1 0.0
22/05:00am 10.9 9.8 10.6 98 0.2 NNE 7 9 4 5 1024.0 1023.9 0.0
22/04:30am 10.2 9.5 9.9 98 0.2 NE 4 7 2 4 1023.9 1023.8 0.0
22/04:00am 9.8 9.7 9.3 97 0.2 CALM 0 0 0 0 1024.0 1023.9 0.0
22/03:30am 10.6 10.7 10.3 98 0.2 CALM 0 0 0 0 1024.2 1024.1 0.0
22/03:00am 10.7 10.5 10.4 98 0.2 W 2 6 1 3 1024.4 1024.3 0.0
22/02:30am 11.6 10.7 11.3 98 0.2 W 7 9 4 5 1024.6 1024.5 0.0
22/02:00am 11.8 10.6 11.5 98 0.2 W 9 11 5 6 1024.9 1024.8 0.0
22/01:30am 11.3 10.5 11.0 98 0.2 WSW 6 7 3 4 1025.3 1025.2 0.0
22/01:00am 12.3 11.2 12.0 98 0.2 W 9 13 5 7 1025.7 1025.6 0.0
22/12:30am 11.6 10.6 11.1 97 0.3 WSW 7 9 4 5 1026.0 1025.9 0.0
22/12:00am 11.9 11.6 11.4 97 0.3 WSW 4 6 2 3 1026.1 1026.0 0.0
 
Date/Time
EDT
Temp
°C
App
Temp
°C
Dew
Point
°C
Rel
Hum
%
Delta-T
°C
Wind Press
QNH
hPa
Press
MSL
hPa
Rain since
9am
mm
Dir  Spd
km/h
Gust
km/h
Spd
kts
Gust
kts
21/11:30pm 12.1 11.4 11.5 96 0.3 SW 6 7 3 4 1026.2 1026.1 0.0
21/11:00pm 12.6 11.9 12.1 97 0.3 W 7 9 4 5 1026.4 1026.3 0.0
21/10:30pm 12.3 11.6 11.5 95 0.4 WNW 6 7 3 4 1026.3 1026.2 0.0
21/10:00pm 12.5 12.7 10.6 88 1.0 CALM 0 0 0 0 1026.4 1026.3 0.0
21/09:30pm 13.5 13.7 11.7 89 1.0 ESE 2 6 1 3 1026.6 1026.5 0.0
21/09:00pm 13.6 12.7 11.5 87 1.1 ESE 7 7 4 4 1026.4 1026.3 0.0
21/08:30pm 13.8 13.8 11.3 85 1.3 E 2 7 1 4 1026.4 1026.3 0.0
21/08:00pm 14.3 13.5 11.6 84 1.4 E 7 9 4 5 1026.2 1026.1 0.0
21/07:30pm 15.3 14.3 11.1 76 2.2 ENE 7 9 4 5 1026.0 1025.9 0.0
21/07:00pm 16.7 14.9 11.0 69 3.0 ENE 11 13 6 7 1025.7 1025.6 0.0
21/06:30pm 17.4 15.2 10.8 65 3.6 ENE 13 19 7 10 1025.4 1025.3 0.0
21/06:00pm 17.9 14.9 10.5 62 3.9 E 17 20 9 11 1025.2 1025.1 0.0
21/05:30pm 18.4 15.3 10.3 59 4.3 E 17 24 9 13 1025.0 1024.9 0.0
21/05:00pm 18.6 15.2 10.7 60 4.3 E 19 24 10 13 1024.9 1024.8 0.0
21/04:30pm 19.1 15.7 9.3 53 5.2 E 17 24 9 13 1024.8 1024.7 0.0
21/04:00pm 19.5 16.1 10.5 56 4.8 ESE 19 26 10 14 1024.8 1024.7 0.0
21/03:30pm 19.3 15.4 9.5 53 5.2 E 20 26 11 14 1025.0 1024.9 0.0
21/03:00pm 19.5 15.4 8.5 49 5.7 E 20 30 11 16 1025.2 1025.1 0.0
21/02:30pm 19.7 16.3 10.7 56 4.9 ESE 19 24 10 13 1025.4 1025.3 0.0
21/02:00pm 19.5 15.7 9.7 53 5.2 SE 20 26 11 14 1025.6 1025.5 0.0
21/01:30pm 19.7 16.1 10.7 56 4.9 SE 20 28 11 15 1025.7 1025.6 0.0
21/01:00pm 19.5 15.9 10.5 56 4.8 SSE 20 28 11 15 1025.6 1025.5 0.0
21/12:30pm 19.0 15.7 9.5 54 5.0 SSE 17 24 9 13 1025.8 1025.7 0.0
21/12:00pm 19.3 16.7 9.2 52 5.3 S 13 20 7 11 1026.1 1026.0 0.0
21/11:30am 18.5 15.5 7.6 49 5.5 SSW 13 19 7 10 1026.4 1026.3 0.0
21/11:00am 17.8 14.6 8.4 54 4.8 SSW 15 20 8 11 1026.6 1026.5 0.0
21/10:30am 17.2 14.1 10.3 64 3.7 SSW 17 22 9 12 1026.8 1026.7 0.0
21/10:00am 16.7 13.5 10.1 65 3.5 S 17 22 9 12 1026.9 1026.8 0.0
21/09:30am 16.1 12.9 10.0 67 3.2 SSW 17 20 9 11 1026.9 1026.8 0.0
21/09:00am 16.2 14.9 9.8 66 3.3 SW 7 13 4 7 1026.8 1026.7 0.0
21/08:30am 14.6 12.4 7.9 64 3.3 WNW 9 11 5 6 1026.5 1026.4 0.0
21/08:00am 14.0 12.3 8.2 68 2.9 NW 7 9 4 5 1026.3 1026.2 0.0
21/07:30am 13.5 12.0 8.6 72 2.5 NNW 6 9 3 5 1026.1 1026.0 0.0
21/07:00am 12.4 10.0 8.7 78 1.8 NNW 11 15 6 8 1025.8 1025.7 0.0
21/06:30am 9.7 8.1 7.8 88 0.9 NNW 6 9 3 5 1025.5 1025.4 0.0
21/06:00am 9.7 8.4 7.8 88 0.9 WNW 4 6 2 3 1025.3 1025.2 0.0
21/05:30am 8.8 8.2 7.3 90 0.7 CALM 0 0 0 0 1025.1 1025.0 0.0
21/05:00am 9.4 8.9 7.7 89 0.8 CALM 0 0 0 0 1025.1 1025.0 0.0
21/04:30am 9.2 8.3 7.8 91 0.7 W 2 6 1 3 1024.9 1024.8 0.0
21/04:00am 9.8 8.2 8.2 90 0.8 W 6 7 3 4 1024.9 1024.8 0.0
21/03:30am 10.2 8.3 9.0 92 0.6 W 9 11 5 6 1025.1 1025.0 0.0
21/03:00am 10.4 8.1 9.0 91 0.7 W 11 11 6 6 1025.2 1025.1 0.0
21/02:30am 10.4 8.2 9.5 94 0.5 W 11 13 6 7 1025.4 1025.3 0.0
21/02:00am 10.6 8.6 10.0 96 0.3 W 11 13 6 7 1025.8 1025.7 0.0
21/01:30am 10.5 8.8 9.7 95 0.4 W 9 11 5 6 1025.9 1025.8 0.0
21/01:00am 10.8 8.4 10.0 95 0.4 W 13 13 7 7 1026.1 1026.0 0.0
21/12:30am 11.1 9.1 10.0 93 0.6 W 11 13 6 7 1026.2 1026.1 0.0
21/12:00am 11.0 9.9 9.8 92 0.6 W 6 9 3 5 1026.2 1026.1 0.0
 
Date/Time
EDT
Temp
°C
App
Temp
°C
Dew
Point
°C
Rel
Hum
%
Delta-T
°C
Wind Press
QNH
hPa
Press
MSL
hPa
Rain since
9am
mm
Dir  Spd
km/h
Gust
km/h
Spd
kts
Gust
kts
20/11:30pm 10.9 9.5 9.5 91 0.7 W 7 11 4 6 1026.2 1026.1 0.0
20/11:00pm 11.1 9.5 8.8 86 1.1 W 7 9 4 5 1026.1 1026.0 0.0
20/10:30pm 10.9 10.5 8.1 83 1.4 CALM 0 0 0 0 1025.9 1025.8 0.0
20/10:00pm 11.1 10.6 7.8 80 1.6 CALM 0 0 0 0 1025.9 1025.8 0.0
20/09:30pm 11.8 10.6 7.9 77 1.9 E 4 6 2 3 1025.7 1025.6 0.0
20/09:00pm 12.6 11.0 7.9 73 2.3 E 6 7 3 4 1025.3 1025.2 0.0
20/08:30pm 12.8 11.2 8.1 73 2.3 ESE 6 7 3 4 1025.0 1024.9 0.0
20/08:00pm 13.1 11.5 8.0 71 2.5 ESE 6 7 3 4 1024.4 1024.3 0.0
20/07:30pm 14.1 12.2 7.6 65 3.2 E 7 7 4 4 1023.9 1023.8 0.0
20/07:00pm 15.0 12.7 7.3 60 3.8 E 9 13 5 7 1023.4 1023.3 0.0
20/06:30pm 15.7 12.2 7.2 57 4.2 E 15 19 8 10 1023.1 1023.0 0.0
20/06:00pm 16.3 13.0 6.4 52 4.8 E 13 20 7 11 1022.5 1022.4 0.0
20/05:30pm 16.4 11.9 6.2 51 5.0 E 19 24 10 13 1022.1 1022.0 0.0
20/05:00pm 17.0 12.1 5.3 46 5.6 E 20 26 11 14 1021.6 1021.5 0.0
20/04:30pm 17.4 12.7 6.0 47 5.6 E 20 32 11 17 1021.5 1021.4 0.0
20/04:00pm 17.4 12.1 5.0 44 5.9 E 22 30 12 16 1021.2 1021.1 0.0
20/03:30pm 17.4 11.2 2.2 36 6.9 ESE 24 32 13 17 1021.1 1021.0 0.0
20/03:00pm 17.7 11.8 3.9 40 6.5 ESE 24 32 13 17 1021.0 1020.9 0.0
20/02:30pm 17.6 11.5 4.6 42 6.2 E 26 32 14 17 1021.0 1020.9 0.0
20/02:00pm 18.1 12.7 6.3 46 5.8 ESE 24 32 13 17 1021.1 1021.0 0.0
20/01:30pm 17.7 11.7 3.6 39 6.6 ESE 24 33 13 18 1021.2 1021.1 0.0
20/01:00pm 17.9 12.8 4.1 40 6.5 ESE 20 28 11 15 1021.2 1021.1 0.0
20/12:30pm 17.1 11.1 3.1 39 6.4 SE 24 30 13 16 1021.6 1021.5 0.0
20/12:00pm 17.3 12.0 1.7 35 7.0 SSE 19 26 10 14 1021.6 1021.5 0.0
20/11:30am 17.5 12.3 0.2 31 7.5 S 17 22 9 12 1022.0 1021.9 0.0
20/11:00am 16.9 11.3 1.0 34 7.0 S 20 32 11 17 1022.4 1022.3 0.0
20/10:30am 17.0 11.3 0.6 33 7.2 SSW 20 28 11 15 1022.5 1022.4 0.0
20/10:00am 16.9 10.8 0.5 33 7.1 SSW 22 32 12 17 1022.4 1022.3 0.0
20/09:30am 16.6 11.3 1.9 37 6.6 SW 19 28 10 15 1022.1 1022.0 0.0
20/09:00am 15.8 11.1 3.3 43 5.7 WSW 17 22 9 12 1021.8 1021.7 0.0
20/08:30am 14.6 10.8 3.7 48 5.0 WSW 13 19 7 10 1021.4 1021.3 0.0

Latest Capital City Observations: Canberra | Sydney | Melbourne | Brisbane | Adelaide | Perth | Hobart | Darwin

Other formats

Comma delimited format used in spreadsheet applications
http://www.bom.gov.au/fwo/IDN60903/IDN60903.94751.axf

JavaScript Object Notation format (JSON) in row-major order
http://www.bom.gov.au/fwo/IDN60903/IDN60903.94751.json

Data quality

Most of these data are generated automatically and are frequently updated. Quality checks on data are not normally performed. It is possible for incorrect values to appear. Refer to information at About Latest Weather Observations and please check the disclaimer before using these data.